< Typhoon 201815 2018 Season Typhoon 201817 >
Typhoon 201816 (BEBINCA)
General InformationTrack Information on Google MapsDetailed Wind InformationForecast History on Google MapsAccess Analytics MapList of All Images || NewsDisaster Info.WeblogTrackbackTyphoon FrontTwiphoonTyphoon Now!Typhoon ImaginationJMA Disaster Info. XMLResourceGoogle EarthGE AnimationAtom FeedGeoJSON
Detalied Best Track (Time Zone = UTC)
Year Month Day Hour Lat. Long. Pressure (hPa) Wind (kt) Class Image Chart
2018 8 9 18 19.9 111.6 998 0 2 Image Chart
2018 8 10 00 20.3 111.7 998 0 2 Image Chart
2018 8 10 06 20.7 111.9 998 0 2 Image Chart
2018 8 10 12 20.9 112.1 998 0 2 Image Chart
2018 8 10 18 21.0 112.2 996 0 2 Image Chart
2018 8 11 00 21.2 112.3 994 0 2 Image Chart
2018 8 11 06 22.1 112.2 994 0 2 Image Chart
2018 8 11 12 21.5 112.3 994 0 2 Image Chart
2018 8 11 18 21.2 112.1 994 0 2 Image Chart
2018 8 12 00 21.0 112.1 992 0 2 Image Chart
2018 8 12 06 20.9 112.2 992 0 2 Image Chart
2018 8 12 12 20.6 112.3 992 0 2 Image Chart
2018 8 12 18 20.6 112.7 992 0 2 Image Chart
2018 8 13 00 20.6 112.9 990 35 3 Image Chart
2018 8 13 06 20.6 113.3 990 35 3 Image Chart
2018 8 13 12 20.6 113.5 990 35 3 Image Chart
2018 8 13 18 20.7 113.7 990 35 3 Image Chart
2018 8 14 00 20.9 113.9 990 35 3 Image Chart
2018 8 14 06 21.0 113.6 990 35 3 Image Chart
2018 8 14 12 21.0 113.3 990 35 3 Image Chart
2018 8 14 18 21.0 112.9 990 35 3 Image Chart
2018 8 15 00 20.9 112.0 990 35 3 Image Chart
2018 8 15 06 21.0 111.4 990 40 3 Image Chart
2018 8 15 12 20.8 110.7 990 40 3 Image Chart
2018 8 15 18 20.7 109.6 990 40 3 Image Chart
2018 8 16 00 20.5 108.3 990 40 3 Image Chart
2018 8 16 06 20.1 107.9 985 45 3 Image Chart
2018 8 16 12 19.8 107.2 985 45 3 Image Chart
2018 8 16 18 19.7 106.5 990 40 3 Image Chart
2018 8 17 00 19.5 105.1 992 35 3 Image Chart
2018 8 17 06 19.0 104.0 994 0 2 Image Chart
2018 8 17 12 20.2 102.2 996 0 2 Image Chart
2018 8 17 18 19.8 100.3 996 0 2 Image Chart
Japan Meteorological Agency Best Track Data | Correction Date : 2018-10-05
< Typhoon 201815 2018 Season Typhoon 201817 >

Help